Home   Weather   Germany   Dresden   Past weeks
Flag for Germany

Past Weather in Dresden, Saxony, Germany — Yesterday and Last 2 Weeks

Currently: 59 °F. Sunny. (Weather station: Dresden-Klotzsche, Germany). See more current weather

Past Weather in Dresden — Graph

°F

Dresden Temperature Yesterday

Maximum temperature yesterday: 82 °F (at 1:50 pm)
Minimum temperature yesterday: 55 °F (at 5:20 am)
Average temperature yesterday: 71 °F

High & Low Weather Summary for the Past Weeks

 TemperatureHumidityPressure
High95 °F (Aug 4, 2:20 pm)94% (Jul 30, 4:20 am)30.33 "Hg (Jul 30, 4:20 am)
Low48 °F (Jul 28, 4:50 am)23% (Aug 3, 5:50 pm)29.89 "Hg (Aug 5, 3:20 am)
Average71 °F50%30.10 "Hg
* Reported Jul 27 6:20 am — Aug 11 6:20 am, Dresden. Weather by CustomWeather, © 2022

Note: Actual official high and low records may vary slightly from our data, if they occured in-between our weather recording intervals... More about our weather records

Dresden Weather History for the Previous 24 Hours

Scroll right to see more
 ConditionsComfort  
Time TempWeatherWind HumidityBarometerVisibility
6:20 am
Thu, Aug 11
57 °FSunny.3 mph72%30.24 "Hg10 mi
5:50 am61 °FSunny.2 mph59%30.24 "Hg10 mi
5:20 am61 °FClear.2 mph59%30.24 "Hg10 mi
4:50 am59 °FPassing clouds.3 mph68%30.24 "HgN/A
4:20 am59 °FClear.7 mph63%30.24 "Hg10 mi
3:50 am63 °FClear.8 mph56%30.24 "Hg10 mi
3:20 am63 °FClear.2 mph56%30.24 "Hg10 mi
2:50 am64 °FPassing clouds.3 mph56%30.24 "HgN/A
1:20 am66 °FClear.7 mph52%30.24 "Hg10 mi
12:50 am66 °FClear.7 mph52%30.24 "Hg10 mi
12:20 am66 °FPassing clouds.5 mph52%30.24 "HgN/A
11:50 pm
Wed, Aug 10
66 °FClear.2 mph52%30.24 "Hg10 mi
11:20 pm68 °FClear.3 mph49%30.24 "Hg10 mi
10:50 pm70 °FClear.3 mph46%30.24 "Hg10 mi
10:20 pm72 °FClear.3 mph44%30.24 "Hg10 mi
9:20 pm72 °FClear.3 mph41%30.24 "Hg10 mi
8:50 pm75 °FClear.3 mph34%30.24 "Hg10 mi
8:20 pm77 °FSunny.6 mph32%30.24 "Hg10 mi
7:50 pm79 °FPassing clouds.6 mph30%30.24 "HgN/A
7:20 pm81 °FSunny.2 mph26%30.24 "Hg10 mi
6:50 pm81 °FPassing clouds.5 mph26%30.24 "HgN/A
6:20 pm82 °FSunny.9 mph26%30.24 "Hg10 mi
5:50 pm81 °FSunny.1 mph26%30.24 "Hg10 mi
5:20 pm81 °FSunny.2 mph28%30.27 "Hg10 mi
4:50 pm79 °FPassing clouds.5 mph30%30.27 "HgN/A
4:20 pm79 °FPassing clouds.8 mph30%30.27 "HgN/A
3:20 pm81 °FPassing clouds.7 mph28%30.27 "HgN/A
2:50 pm79 °FSunny.10 mph30%30.30 "Hg10 mi
2:20 pm79 °FPassing clouds.3 mph30%30.30 "HgN/A
1:50 pm82 °FSunny.3 mph28%30.30 "Hg10 mi
1:20 pm79 °FSunny.3 mph30%30.30 "Hg10 mi
12:50 pm77 °FPassing clouds.6 mph32%30.30 "HgN/A
12:20 pm77 °FPassing clouds.3 mph34%30.33 "HgN/A
11:50 am77 °FSunny.5 mph34%30.33 "Hg10 mi
10:50 am75 °FSunny.3 mph39%30.33 "Hg10 mi
10:20 am73 °FSunny.3 mph41%30.33 "Hg10 mi
9:50 am72 °FSunny.3 mph44%30.33 "Hg10 mi
8:50 am66 °FSunny.2 mph52%30.33 "Hg10 mi
7:50 am61 °FSunny.1 mph63%30.33 "Hg10 mi
Weather by CustomWeather, © 2022

See weather overview